Time;durP1;ratioP1;P1;durP2;ratioP2;P2;SDS_P1;SDS_P2;PMS_P1;PMS_P2;Temp;Humidity;BMP_temperature;BMP_pressure;BME280_temperature;BME280_humidity;BME280_pressure;Samples;Min_cycle;Max_cycle;Signal;HPM_P1;HPM_P2
2022/08/11 00:01:06;;;;;;;4.30;3.90;;;25.10;32.60;;;;;;5081115;28;20460;-88
2022/08/11 00:03:34;;;;;;;4.93;4.20;;;25.30;32.70;;;;;;5070122;28;20447;-88
2022/08/11 00:06:02;;;;;;;4.50;4.10;;;25.40;32.70;;;;;;5055847;28;20450;-88
2022/08/11 00:08:32;;;;;;;4.90;4.50;;;25.50;32.80;;;;;;5091564;28;20552;-88
2022/08/11 00:11:01;;;;;;;5.43;4.53;;;25.50;32.50;;;;;;5069002;28;20444;-89
2022/08/11 00:13:34;;;;;;;4.90;4.37;;;25.30;32.90;;;;;;5079628;28;20570;-88
2022/08/11 00:16:04;;;;;;;5.50;4.17;;;25.20;33.40;;;;;;5063267;28;20443;-89
2022/08/11 00:22:21;;;;;;;4.13;3.83;;;25.30;33.80;;;;;;5068506;28;20466;-89
2022/08/11 00:24:50;;;;;;;4.37;3.93;;;25.30;34.30;;;;;;5086210;28;20452;-88
2022/08/11 00:27:17;;;;;;;5.47;4.33;;;25.30;33.70;;;;;;5086305;28;20889;-88
2022/08/11 00:29:53;;;;;;;8.23;4.40;;;25.30;33.70;;;;;;5073193;28;20473;-88
2022/08/11 00:32:22;;;;;;;4.03;3.73;;;25.20;33.70;;;;;;5064197;28;20554;-89
2022/08/11 00:34:50;;;;;;;4.23;3.83;;;25.20;33.60;;;;;;5069966;28;20439;-89
2022/08/11 00:37:19;;;;;;;9.63;4.07;;;25.10;33.10;;;;;;5077812;28;20458;-88
2022/08/11 00:39:50;;;;;;;4.77;4.30;;;24.90;32.90;;;;;;5088026;28;20468;-88
2022/08/11 00:42:30;;;;;;;5.83;3.90;;;24.80;33.30;;;;;;5036222;28;20508;-89
2022/08/11 00:45:06;;;;;;;5.90;4.50;;;24.80;33.40;;;;;;5089326;28;20468;-88
2022/08/11 00:48:26;;;;;;;4.70;4.20;;;24.80;33.70;;;;;;5046222;28;20451;-89
2022/08/11 00:51:06;;;;;;;4.27;3.77;;;24.80;34.00;;;;;;5086701;28;20463;-87
2022/08/11 00:53:45;;;;;;;4.17;3.87;;;24.80;33.80;;;;;;5070845;28;20462;-88
2022/08/11 00:56:48;;;;;;;6.90;4.60;;;24.80;34.00;;;;;;5066731;28;20454;-88
2022/08/11 00:59:36;;;;;;;6.80;4.30;;;24.80;34.00;;;;;;5054414;28;21064;-88
2022/08/11 01:02:14;;;;;;;8.50;4.30;;;24.70;34.20;;;;;;5065443;28;20637;-86
2022/08/11 01:05:22;;;;;;;4.73;4.33;;;24.30;34.40;;;;;;5051837;28;20458;-89
2022/08/11 01:08:29;;;;;;;4.87;4.50;;;24.20;34.40;;;;;;5053754;28;20466;-89
2022/08/11 01:11:24;;;;;;;5.10;4.20;;;24.30;34.60;;;;;;5006014;28;20463;-88
2022/08/11 01:14:23;;;;;;;6.40;4.20;;;24.30;34.60;;;;;;5088211;28;20450;-88
2022/08/11 01:17:07;;;;;;;5.77;4.47;;;24.40;34.90;;;;;;5051053;28;20443;-89
2022/08/11 01:20:26;;;;;;;4.90;4.40;;;24.40;35.30;;;;;;5067949;28;20470;-89
2022/08/11 01:23:20;;;;;;;5.40;4.90;;;24.40;35.30;;;;;;5051487;28;20974;-88
2022/08/11 01:26:37;;;;;;;4.67;4.27;;;24.40;35.40;;;;;;5058701;28;20455;-88
2022/08/11 01:29:41;;;;;;;4.40;4.10;;;24.40;35.20;;;;;;5061215;28;20595;-89
2022/08/11 01:32:51;;;;;;;8.10;5.10;;;24.30;34.90;;;;;;5061519;28;20500;-88
2022/08/11 01:35:35;;;;;;;4.10;3.90;;;24.30;34.80;;;;;;5060131;28;21097;-87
2022/08/11 01:38:48;;;;;;;10.00;4.17;;;24.30;34.60;;;;;;5054844;28;20475;-88
2022/08/11 01:45:02;;;;;;;4.63;4.23;;;24.20;35.10;;;;;;5053466;28;20892;-89
2022/08/11 01:47:53;;;;;;;5.13;4.63;;;24.10;35.50;;;;;;5070341;28;20463;-88
2022/08/11 01:50:37;;;;;;;4.70;4.40;;;24.00;36.00;;;;;;5051712;28;20477;-88
2022/08/11 01:53:12;;;;;;;6.70;4.57;;;24.00;36.20;;;;;;5055388;28;20959;-88
2022/08/11 01:55:47;;;;;;;5.87;4.10;;;24.00;36.40;;;;;;5049598;28;20508;-88
2022/08/11 01:58:26;;;;;;;4.97;4.47;;;24.00;36.50;;;;;;5060236;28;20802;-88
2022/08/11 02:01:02;;;;;;;5.20;4.80;;;23.90;36.60;;;;;;5068769;28;20451;-88
2022/08/11 02:03:39;;;;;;;5.53;5.03;;;23.90;36.70;;;;;;5049118;28;20494;-89
2022/08/11 02:06:54;;;;;;;4.90;4.50;;;23.90;37.10;;;;;;5056687;28;20487;-87
2022/08/11 02:09:33;;;;;;;6.20;4.87;;;23.80;37.30;;;;;;5054211;28;20913;-88
2022/08/11 02:12:14;;;;;;;5.20;4.70;;;23.80;37.30;;;;;;5062217;28;20472;-89
2022/08/11 02:14:49;;;;;;;5.23;4.73;;;23.70;37.50;;;;;;5056287;28;20447;-89
2022/08/11 02:17:21;;;;;;;8.37;4.47;;;23.70;37.30;;;;;;5060294;28;20484;-90
2022/08/11 02:25:46;;;;;;;5.83;5.33;;;23.50;38.30;;;;;;5059960;28;20439;-89
2022/08/11 02:28:27;;;;;;;4.80;4.50;;;23.50;38.40;;;;;;5047922;28;21039;-87
2022/08/11 02:33:57;;;;;;;5.90;5.40;;;23.40;39.00;;;;;;5057759;28;20442;-87
2022/08/11 02:36:36;;;;;;;9.43;5.67;;;23.40;39.50;;;;;;5062402;28;20462;-89
2022/08/11 02:39:10;;;;;;;8.17;4.93;;;23.30;40.00;;;;;;5045438;28;20857;-88
2022/08/11 02:45:16;;;;;;;5.70;5.30;;;23.30;39.60;;;;;;5057895;28;20523;-88
2022/08/11 02:50:49;;;;;;;5.17;4.77;;;23.20;39.40;;;;;;5056663;28;20452;-89
2022/08/11 02:53:23;;;;;;;7.53;5.23;;;23.10;39.30;;;;;;5070862;28;20438;-89
2022/08/11 02:56:01;;;;;;;6.03;5.40;;;23.10;40.00;;;;;;5071237;28;20806;-89
2022/08/11 03:01:46;;;;;;;6.30;5.70;;;23.10;39.90;;;;;;5054581;28;20434;-88
2022/08/11 03:04:25;;;;;;;6.60;5.77;;;23.00;39.60;;;;;;5079167;28;20442;-88
2022/08/11 03:07:00;;;;;;;6.20;5.70;;;23.00;39.50;;;;;;5058303;28;20475;-89
2022/08/11 03:09:43;;;;;;;6.03;5.43;;;23.00;39.40;;;;;;5045364;28;20557;-88
2022/08/11 03:18:34;;;;;;;6.07;5.60;;;22.90;40.10;;;;;;5086141;28;20478;-88
2022/08/11 03:21:10;;;;;;;7.73;6.07;;;22.80;40.20;;;;;;5071291;28;21041;-89
2022/08/11 03:23:44;;;;;;;5.97;5.47;;;22.80;41.00;;;;;;5065194;28;20469;-87
2022/08/11 03:26:42;;;;;;;6.70;6.00;;;22.70;41.10;;;;;;5061669;28;20471;-87
2022/08/11 03:29:23;;;;;;;6.00;5.50;;;22.70;41.20;;;;;;5071068;28;21196;-86
2022/08/11 03:31:59;;;;;;;8.20;5.30;;;22.70;41.50;;;;;;5045692;28;20707;-88
2022/08/11 03:34:28;;;;;;;6.60;6.00;;;22.60;41.70;;;;;;5061072;28;20600;-88
2022/08/11 03:37:11;;;;;;;6.53;5.97;;;22.60;42.00;;;;;;5058423;28;20542;-88
2022/08/11 03:39:48;;;;;;;6.57;5.83;;;22.60;42.10;;;;;;5056555;28;20548;-85
2022/08/11 03:42:24;;;;;;;6.27;5.67;;;22.50;42.00;;;;;;5060546;28;20471;-87
2022/08/11 03:45:05;;;;;;;6.53;5.73;;;22.50;41.80;;;;;;5068513;28;20450;-88
2022/08/11 03:48:00;;;;;;;6.47;5.97;;;22.50;41.40;;;;;;5049821;27;20440;-86
2022/08/11 03:50:47;;;;;;;7.00;6.40;;;22.50;41.70;;;;;;5080671;28;20459;-88
2022/08/11 03:53:18;;;;;;;6.30;5.87;;;22.50;42.30;;;;;;5053945;28;20455;-88
2022/08/11 03:56:19;;;;;;;7.70;6.33;;;22.40;42.50;;;;;;5066840;28;20447;-89
2022/08/11 03:59:23;;;;;;;7.70;6.23;;;22.40;42.50;;;;;;5058484;28;20476;-88
2022/08/11 04:02:30;;;;;;;6.77;6.10;;;22.40;42.70;;;;;;5040278;28;20448;-88
2022/08/11 04:05:23;;;;;;;7.13;6.53;;;22.30;43.30;;;;;;5062217;28;20450;-88
2022/08/11 04:08:25;;;;;;;8.67;5.83;;;22.30;43.40;;;;;;5058577;28;20478;-88
2022/08/11 04:11:27;;;;;;;6.70;6.20;;;22.30;43.60;;;;;;5060404;28;20545;-89
2022/08/11 04:17:46;;;;;;;7.30;6.70;;;22.20;43.70;;;;;;5053165;28;20463;-88
2022/08/11 04:20:32;;;;;;;6.60;6.00;;;22.10;43.80;;;;;;5025295;28;20537;-89
2022/08/11 04:23:25;;;;;;;6.77;6.10;;;22.10;43.70;;;;;;5087455;28;20792;-88
2022/08/11 04:26:32;;;;;;;8.30;6.47;;;22.10;43.50;;;;;;5054878;28;20959;-88
2022/08/11 04:29:24;;;;;;;8.00;6.00;;;22.10;44.20;;;;;;5071018;28;20477;-89
2022/08/11 04:35:12;;;;;;;7.70;6.27;;;22.10;42.60;;;;;;5056736;28;20616;-88
2022/08/11 04:37:55;;;;;;;7.67;6.87;;;22.00;42.20;;;;;;5043776;28;20527;-88
2022/08/11 04:40:54;;;;;;;7.23;6.53;;;22.00;42.50;;;;;;5050796;28;20442;-89
2022/08/11 04:44:05;;;;;;;7.57;5.97;;;22.00;42.90;;;;;;5069155;28;20558;-88
2022/08/11 05:01:39;;;;;;;6.57;6.07;;;21.90;43.50;;;;;;5061196;28;20476;-88
2022/08/11 05:03:36;;;;;;;8.00;7.03;;;21.90;44.80;;;;;;5060016;28;20463;-88
2022/08/11 05:06:35;;;;;;;7.87;7.10;;;21.90;45.20;;;;;;5053046;28;20540;-86
2022/08/11 05:09:25;;;;;;;7.17;6.30;;;21.90;44.90;;;;;;5059007;28;20460;-87
2022/08/11 05:12:14;;;;;;;8.00;7.30;;;21.80;44.50;;;;;;5051785;28;20442;-89
2022/08/11 05:35:50;;;;;;;9.60;6.70;;;22.00;44.90;;;;;;5070716;28;20451;-88
2022/08/11 05:57:59;;;;;;;9.83;7.20;;;22.20;44.60;;;;;;5075516;28;20497;-89
2022/08/11 06:00:26;;;;;;;7.63;6.93;;;22.20;44.60;;;;;;5079227;28;20509;-89
2022/08/11 06:02:58;;;;;;;8.13;6.43;;;22.30;44.70;;;;;;5063271;28;20463;-88
2022/08/11 06:05:33;;;;;;;9.30;6.50;;;22.30;44.60;;;;;;5057968;28;20814;-89
2022/08/11 06:08:00;;;;;;;7.63;6.43;;;22.30;44.30;;;;;;5056614;28;20475;-87
2022/08/11 06:10:32;;;;;;;7.90;6.73;;;22.40;44.20;;;;;;5061976;28;21114;-87
2022/08/11 06:13:01;;;;;;;6.73;6.20;;;22.40;44.00;;;;;;5065482;28;20443;-87
2022/08/11 06:15:31;;;;;;;6.90;6.27;;;22.40;44.30;;;;;;5064101;28;20950;-88
2022/08/11 06:18:01;;;;;;;7.13;6.53;;;22.50;44.20;;;;;;5071271;28;20483;-89
2022/08/11 06:20:35;;;;;;;6.60;6.07;;;22.50;43.80;;;;;;5072286;28;20455;-88
2022/08/11 06:23:04;;;;;;;7.23;6.00;;;22.50;43.80;;;;;;5079670;28;20460;-88
2022/08/11 06:25:34;;;;;;;13.87;7.00;;;22.50;43.50;;;;;;5054964;28;20466;-87
2022/08/11 06:28:05;;;;;;;10.27;6.07;;;22.40;43.80;;;;;;5092983;28;20543;-88
2022/08/11 06:30:59;;;;;;;9.23;5.97;;;22.50;42.40;;;;;;5076673;28;20477;-89
2022/08/11 06:33:33;;;;;;;6.77;5.50;;;22.70;42.50;;;;;;5091063;28;20452;-87
2022/08/11 06:39:07;;;;;;;9.63;6.03;;;22.90;42.40;;;;;;5073414;28;20468;-88
2022/08/11 06:41:40;;;;;;;6.73;6.23;;;23.10;42.00;;;;;;5081216;28;20474;-87
2022/08/11 06:44:16;;;;;;;12.10;5.77;;;23.20;41.50;;;;;;5073760;28;20631;-88
2022/08/11 06:46:47;;;;;;;6.37;5.77;;;23.40;41.20;;;;;;5076115;28;20444;-88
2022/08/11 06:55:05;;;;;;;6.30;5.80;;;23.70;40.80;;;;;;5069380;28;20444;-89
2022/08/11 07:00:30;;;;;;;11.37;6.10;;;24.00;39.60;;;;;;5055427;28;20440;-88
2022/08/11 07:03:07;;;;;;;6.67;5.47;;;24.20;39.50;;;;;;5073990;28;20455;-87
2022/08/11 07:05:42;;;;;;;7.30;5.67;;;24.40;39.30;;;;;;5055877;28;20931;-87
2022/08/11 07:28:54;;;;;;;7.27;5.03;;;24.70;37.70;;;;;;5072676;28;20957;-88
2022/08/11 07:29:01;;;;;;;5.57;4.97;;;25.30;37.90;;;;;;5062364;28;20459;-88
2022/08/11 07:31:35;;;;;;;6.40;5.80;;;25.50;37.90;;;;;;5089104;28;20868;-86
2022/08/11 07:34:17;;;;;;;5.33;4.93;;;25.70;37.60;;;;;;5069099;28;20824;-86
2022/08/11 07:36:49;;;;;;;5.30;4.80;;;25.70;37.20;;;;;;5070231;28;20529;-85
2022/08/11 07:39:20;;;;;;;5.90;5.40;;;25.80;37.30;;;;;;5087865;28;20490;-87
2022/08/11 07:41:48;;;;;;;6.47;4.77;;;26.00;37.70;;;;;;5084897;28;20443;-87
2022/08/11 07:44:19;;;;;;;5.53;5.13;;;26.10;36.70;;;;;;5043735;28;21424;-88
2022/08/11 07:52:29;;;;;;;6.60;6.00;;;26.30;36.60;;;;;;5069280;28;22186;-87
2022/08/11 07:54:57;;;;;;;5.13;4.63;;;26.50;36.80;;;;;;5070463;28;20439;-89
2022/08/11 08:17:52;;;;;;;4.00;3.63;;;27.30;33.30;;;;;;5070478;28;20446;-87
2022/08/11 08:20:23;;;;;;;4.50;3.57;;;27.30;33.00;;;;;;5049153;28;20478;-88
2022/08/11 08:22:55;;;;;;;3.63;3.23;;;27.40;33.30;;;;;;5087832;28;20998;-89
2022/08/11 08:25:24;;;;;;;8.87;3.60;;;27.60;32.10;;;;;;5082747;28;20538;-87
2022/08/11 08:27:51;;;;;;;8.87;3.40;;;27.90;31.60;;;;;;5072838;28;20470;-88
2022/08/11 08:33:04;;;;;;;3.30;3.00;;;28.20;31.40;;;;;;5053911;28;20962;-87
2022/08/11 08:35:32;;;;;;;4.00;3.60;;;28.50;30.90;;;;;;5053218;28;21297;-89
2022/08/11 08:38:00;;;;;;;3.30;3.00;;;28.60;30.20;;;;;;5072120;28;21265;-87
2022/08/11 08:40:27;;;;;;;3.67;2.87;;;28.70;29.90;;;;;;5064690;28;21071;-88
2022/08/11 08:43:01;;;;;;;4.40;3.00;;;28.80;29.70;;;;;;5079141;28;20440;-86
2022/08/11 08:45:29;;;;;;;4.80;3.50;;;29.00;29.70;;;;;;5087127;28;20451;-88
2022/08/11 08:48:00;;;;;;;9.30;4.10;;;29.20;29.10;;;;;;5061537;28;20637;-87
2022/08/11 08:53:16;;;;;;;7.50;3.30;;;29.20;29.30;;;;;;5085902;28;20443;-88
2022/08/11 08:55:46;;;;;;;7.87;3.03;;;29.40;29.30;;;;;;5076433;28;20455;-87
2022/08/11 08:58:16;;;;;;;5.40;3.27;;;29.60;29.00;;;;;;5069897;28;20499;-88
2022/08/11 09:00:46;;;;;;;12.20;2.80;;;29.80;28.90;;;;;;5077641;28;20848;-87
2022/08/11 09:03:14;;;;;;;4.20;3.27;;;29.70;28.30;;;;;;5070538;28;20505;-87
2022/08/11 09:05:42;;;;;;;3.77;3.47;;;29.90;28.40;;;;;;5053329;28;20896;-88
2022/08/11 09:08:35;;;;;;;8.97;3.83;;;30.20;28.20;;;;;;5086947;28;20479;-87
2022/08/11 09:13:49;;;;;;;8.47;4.10;;;30.50;27.20;;;;;;5056639;28;20432;-88
2022/08/11 09:16:23;;;;;;;3.80;3.50;;;30.40;28.00;;;;;;5067509;28;20499;-87
2022/08/11 09:18:51;;;;;;;6.50;3.83;;;30.50;27.10;;;;;;5060802;28;20473;-87
2022/08/11 09:21:21;;;;;;;5.47;3.17;;;30.50;26.60;;;;;;5083828;28;20474;-87
2022/08/11 09:27:06;;;;;;;4.47;3.23;;;30.80;26.40;;;;;;5053361;28;20485;-87
2022/08/11 09:29:33;;;;;;;3.60;3.10;;;30.60;26.60;;;;;;5088797;28;20477;-86
2022/08/11 09:32:01;;;;;;;5.73;3.37;;;30.60;27.10;;;;;;5072619;28;20452;-88
2022/08/11 09:34:28;;;;;;;7.67;3.53;;;30.70;25.70;;;;;;5052156;28;20451;-88
2022/08/11 09:44:45;;;;;;;5.23;3.23;;;31.40;25.30;;;;;;5067552;28;20474;-87
2022/08/11 09:45:15;;;;;;;9.23;3.70;;;31.40;24.70;;;;;;5086811;28;20628;-87
2022/08/11 09:47:44;;;;;;;4.17;3.50;;;31.50;24.80;;;;;;5072054;28;20540;-87
2022/08/11 09:50:16;;;;;;;4.83;3.70;;;31.70;24.30;;;;;;5054650;28;20447;-85
2022/08/11 09:52:46;;;;;;;5.43;3.50;;;31.60;23.80;;;;;;5089705;28;20970;-86
2022/08/11 09:58:39;;;;;;;4.33;3.57;;;31.70;23.30;;;;;;5086529;28;20843;-86
2022/08/11 10:01:06;;;;;;;4.00;3.27;;;31.80;23.60;;;;;;5070246;28;20449;-87
2022/08/11 10:03:39;;;;;;;2.90;2.70;;;31.80;23.10;;;;;;5067484;28;20636;-86
2022/08/11 10:13:06;;;;;;;4.20;3.13;;;32.50;22.90;;;;;;5048346;28;21513;-87
2022/08/11 10:15:37;;;;;;;3.70;3.40;;;32.90;23.20;;;;;;5061773;28;20982;-90
2022/08/11 10:21:01;;;;;;;3.87;3.13;;;33.10;22.40;;;;;;5055490;28;20458;-86
2022/08/11 10:33:58;;;;;;;3.90;3.60;;;33.10;21.50;;;;;;5070958;28;20482;-87
2022/08/11 10:34:40;;;;;;;3.70;2.90;;;33.40;21.90;;;;;;5090506;28;21034;-88
2022/08/11 10:37:11;;;;;;;5.07;2.90;;;33.60;20.60;;;;;;5053750;28;20460;-87
2022/08/11 10:39:40;;;;;;;2.90;2.70;;;33.50;20.30;;;;;;5067354;28;20528;-85
2022/08/11 10:51:12;;;;;;;6.57;3.30;;;34.20;20.60;;;;;;5078012;28;20550;-85
2022/08/11 10:59:15;;;;;;;3.87;3.10;;;34.70;20.40;;;;;;5061950;28;20474;-87
2022/08/11 11:01:45;;;;;;;7.20;3.33;;;34.80;20.50;;;;;;5089782;28;20451;-86
2022/08/11 11:04:17;;;;;;;3.60;3.10;;;34.90;20.10;;;;;;5070817;28;21329;-87
2022/08/11 11:06:52;;;;;;;3.10;2.90;;;34.70;20.20;;;;;;5087826;28;20469;-86
2022/08/11 11:09:24;;;;;;;4.50;3.37;;;34.80;20.40;;;;;;5068886;28;20467;-87
2022/08/11 11:17:55;;;;;;;3.30;3.10;;;34.90;19.50;;;;;;5067436;28;20539;-87
2022/08/11 11:20:25;;;;;;;5.50;3.07;;;35.10;20.00;;;;;;5066047;28;20450;-88
2022/08/11 11:22:56;;;;;;;3.30;3.10;;;34.80;19.90;;;;;;5069852;28;20518;-85
2022/08/11 11:25:36;;;;;;;3.30;3.00;;;35.00;20.30;;;;;;5047339;28;20466;-87
2022/08/11 11:28:33;;;;;;;6.00;3.10;;;34.70;20.30;;;;;;5084237;28;20475;-86
2022/08/11 11:31:12;;;;;;;3.67;2.73;;;35.00;20.40;;;;;;5066856;28;21228;-88
2022/08/11 11:34:00;;;;;;;3.10;2.70;;;34.60;19.10;;;;;;5084311;28;21028;-87
2022/08/11 11:36:38;;;;;;;3.10;2.80;;;34.60;19.20;;;;;;5084044;28;20444;-86
2022/08/11 11:39:07;;;;;;;3.37;2.70;;;34.90;18.80;;;;;;5086661;28;20862;-88
2022/08/11 11:41:35;;;;;;;3.20;2.90;;;34.90;19.00;;;;;;5076568;28;20551;-87
2022/08/11 11:44:02;;;;;;;4.27;2.73;;;34.70;19.00;;;;;;5069022;28;20464;-88
2022/08/11 11:46:55;;;;;;;2.90;2.70;;;34.90;19.30;;;;;;5087964;28;20444;-88
2022/08/11 11:49:26;;;;;;;4.03;2.90;;;35.10;19.40;;;;;;5065894;28;20490;-87
2022/08/11 11:52:19;;;;;;;2.73;2.60;;;35.50;18.80;;;;;;5067329;28;20537;-88
2022/08/11 11:54:49;;;;;;;3.60;2.70;;;35.50;19.10;;;;;;5066469;28;20443;-88
2022/08/11 12:02:58;;;;;;;2.90;2.33;;;35.50;19.10;;;;;;5092462;28;20636;-86
2022/08/11 12:05:28;;;;;;;3.83;2.90;;;35.30;19.10;;;;;;5070397;28;20519;-86
2022/08/11 12:08:14;;;;;;;4.70;2.60;;;35.40;18.80;;;;;;5072573;28;20448;-86
2022/08/11 12:10:45;;;;;;;3.30;2.90;;;35.50;19.30;;;;;;5080050;28;20456;-87
2022/08/11 12:16:02;;;;;;;2.80;2.60;;;35.70;18.70;;;;;;5080158;28;20448;-86
2022/08/11 12:18:52;;;;;;;3.20;2.37;;;35.80;18.50;;;;;;5055890;28;20502;-86
2022/08/11 12:21:21;;;;;;;4.47;2.57;;;36.00;18.50;;;;;;5088947;28;20519;-85
2022/08/11 12:29:46;;;;;;;2.43;2.20;;;36.30;17.40;;;;;;5084514;28;20471;-88
2022/08/11 12:32:15;;;;;;;2.17;2.03;;;36.20;16.80;;;;;;5091546;28;20452;-85
2022/08/11 12:34:42;;;;;;;2.63;2.03;;;35.90;17.40;;;;;;5090450;28;20477;-86
2022/08/11 12:37:12;;;;;;;2.50;2.30;;;35.90;17.60;;;;;;5089729;28;20455;-86
2022/08/11 12:45:28;;;;;;;3.00;2.40;;;36.00;17.30;;;;;;5090460;28;20467;-87
2022/08/11 12:53:46;;;;;;;2.37;2.17;;;36.00;16.80;;;;;;5073170;28;20534;-86
2022/08/11 13:04:58;;;;;;;2.40;2.20;;;36.60;17.30;;;;;;5074373;28;20474;-87
2022/08/11 16:31:28;;;;;;;2.33;2.20;;;35.40;17.40;;;;;;5052796;28;20455;-88
2022/08/11 16:33:56;;;;;;;6.70;2.77;;;35.30;17.20;;;;;;5053327;28;20443;-88
2022/08/11 16:39:11;;;;;;;3.57;2.40;;;35.30;17.10;;;;;;5052148;28;21305;-85
2022/08/11 16:47:18;;;;;;;4.13;2.43;;;35.20;16.90;;;;;;5035795;28;20982;-87
2022/08/11 16:49:50;;;;;;;5.33;2.77;;;35.10;17.10;;;;;;5049952;28;20502;-87
2022/08/11 16:52:18;;;;;;;2.60;2.40;;;35.10;17.40;;;;;;5021968;28;20819;-87
2022/08/11 16:54:46;;;;;;;2.40;2.20;;;35.20;17.50;;;;;;5041465;28;20447;-87
2022/08/11 17:00:05;;;;;;;2.37;2.20;;;35.00;17.70;;;;;;5052240;28;21273;-87
2022/08/11 17:13:47;;;;;;;3.73;2.40;;;35.30;17.80;;;;;;5058296;28;20486;-87
2022/08/11 17:16:19;;;;;;;2.87;2.67;;;35.30;17.90;;;;;;5053217;28;20958;-88
2022/08/11 17:18:51;;;;;;;3.23;2.20;;;35.10;18.20;;;;;;5069905;28;21252;-88
2022/08/11 17:21:22;;;;;;;3.20;2.70;;;34.80;18.30;;;;;;5068192;28;20459;-88
2022/08/11 17:23:53;;;;;;;2.90;2.70;;;34.70;18.30;;;;;;5053496;28;20436;-87
2022/08/11 17:26:25;;;;;;;3.30;2.60;;;34.50;18.40;;;;;;5034271;28;21588;-86
2022/08/11 17:28:56;;;;;;;2.67;2.37;;;34.70;18.50;;;;;;5050977;28;20460;-87
2022/08/11 17:36:59;;;;;;;3.80;2.83;;;34.80;18.20;;;;;;5057698;28;21244;-87
2022/08/11 17:39:30;;;;;;;3.00;2.80;;;34.80;18.20;;;;;;5029784;28;20541;-86
2022/08/11 17:50:18;;;;;;;3.00;2.80;;;34.50;18.30;;;;;;5069653;28;20484;-88
2022/08/11 18:01:04;;;;;;;9.10;5.73;;;34.50;18.30;;;;;;5065338;28;21379;-87
2022/08/11 18:03:31;;;;;;;7.50;5.73;;;34.50;18.70;;;;;;5067240;28;20537;-86
2022/08/11 18:06:03;;;;;;;7.33;5.90;;;34.50;19.00;;;;;;5058566;28;20472;-87
